createdAt,value
2023-01-20T00:00:47.321Z,1.74
2023-01-20T00:05:52.438Z,1.86
2023-01-20T00:10:56.125Z,1.94
2023-01-20T00:15:59.445Z,1.98
2023-01-20T00:21:08.109Z,2.07
2023-01-20T00:26:17.338Z,2.01
2023-01-20T00:31:26.010Z,2.17
2023-01-20T00:36:31.888Z,2.19
2023-01-20T00:41:35.739Z,2.09
2023-01-20T00:46:39.268Z,1.95
2023-01-20T00:51:42.351Z,1.84
2023-01-20T00:56:45.918Z,1.50
2023-01-20T01:01:49.896Z,1.33
2023-01-20T01:06:53.453Z,1.29
2023-01-20T01:11:56.823Z,1.28
2023-01-20T01:17:00.519Z,1.32
2023-01-20T01:22:03.600Z,1.37
2023-01-20T01:27:07.541Z,1.31
2023-01-20T01:32:10.823Z,1.46
2023-01-20T01:37:13.853Z,1.37
2023-01-20T01:42:20.645Z,1.35
2023-01-20T01:47:24.495Z,1.38
2023-01-20T01:52:28.444Z,1.08
2023-01-20T01:57:33.154Z,1.23
2023-01-20T02:02:36.700Z,1.10
2023-01-20T02:07:40.978Z,1.01
2023-01-20T02:12:49.706Z,1.04
2023-01-20T02:18:41.697Z,1.20
2023-01-20T02:24:18.825Z,1.14
2023-01-20T02:29:21.785Z,0.92
2023-01-20T02:34:32.607Z,1.05
2023-01-20T02:39:47.642Z,1.09
2023-01-20T02:45:20.817Z,1.29
2023-01-20T02:50:32.907Z,1.20
2023-01-20T02:55:44.946Z,1.21
2023-01-20T03:00:55.014Z,1.35
2023-01-20T03:06:03.059Z,1.72
2023-01-20T03:11:09.472Z,1.75
2023-01-20T03:16:19.845Z,1.94
2023-01-20T03:21:23.773Z,2.17
2023-01-20T03:26:26.919Z,2.08
2023-01-20T03:31:36.456Z,2.09
2023-01-20T03:36:42.315Z,2.15
2023-01-20T03:42:09.158Z,2.20
2023-01-20T03:47:20.979Z,2.30
2023-01-20T03:52:47.017Z,2.15
2023-01-20T03:58:04.193Z,2.01
2023-01-20T04:03:13.606Z,1.95
2023-01-20T04:08:18.502Z,1.66
2023-01-20T04:13:21.969Z,1.40
2023-01-20T04:18:25.310Z,1.45
2023-01-20T04:23:41.101Z,1.49
2023-01-20T04:28:44.116Z,1.41
2023-01-20T04:33:47.748Z,1.25
2023-01-20T04:38:50.869Z,1.41
2023-01-20T04:43:54.454Z,2.11
2023-01-20T04:48:57.507Z,1.66
2023-01-20T04:54:16.391Z,1.08
2023-01-20T04:59:20.613Z,0.79
2023-01-20T05:04:23.752Z,0.85
2023-01-20T05:09:26.878Z,1.16
2023-01-20T05:14:29.932Z,1.35
2023-01-20T05:19:33.495Z,1.21
2023-01-20T05:24:37.595Z,1.30
2023-01-20T05:29:40.692Z,1.17
2023-01-20T05:34:43.984Z,0.94
2023-01-20T05:39:47.718Z,0.80
2023-01-20T05:44:50.780Z,0.91
2023-01-20T05:49:53.878Z,0.54
2023-01-20T05:54:56.954Z,0.23
2023-01-20T06:00:00.442Z,0.03
2023-01-20T06:05:04.357Z,0.38
2023-01-20T06:10:09.008Z,0.82
2023-01-20T06:15:12.377Z,0.96
2023-01-20T06:20:16.206Z,0.77
2023-01-20T06:25:19.767Z,0.71
2023-01-20T06:30:22.878Z,0.74
2023-01-20T06:35:26.033Z,0.86
2023-01-20T06:40:29.188Z,0.85
2023-01-20T06:45:32.214Z,0.96
2023-01-20T06:50:35.273Z,1.17
2023-01-20T06:55:38.393Z,1.38
2023-01-20T07:00:42.329Z,1.60
2023-01-20T07:06:01.468Z,1.81
2023-01-20T07:11:05.175Z,2.03
2023-01-20T07:16:11.021Z,2.44
2023-01-20T07:21:15.749Z,5.98
2023-01-20T07:26:21.112Z,8.14
2023-01-20T07:31:26.938Z,9.20
2023-01-20T07:36:30.106Z,8.65
2023-01-20T07:41:34.339Z,8.85
2023-01-20T07:46:38.358Z,9.31
2023-01-20T07:51:43.591Z,9.38
2023-01-20T07:56:47.344Z,9.77
2023-01-20T08:01:50.754Z,10.47
2023-01-20T08:06:54.139Z,10.57
2023-01-20T08:11:58.013Z,10.55
2023-01-20T08:17:01.909Z,10.97
2023-01-20T08:22:05.480Z,10.86
2023-01-20T08:27:08.660Z,10.84
2023-01-20T08:32:12.283Z,11.51
2023-01-20T08:37:15.829Z,11.19
2023-01-20T08:42:19.717Z,11.03
2023-01-20T08:47:24.168Z,11.53
2023-01-20T08:52:28.916Z,11.98
2023-01-20T08:57:33.320Z,12.61
2023-01-20T09:02:37.968Z,12.03
2023-01-20T09:07:41.745Z,12.08
2023-01-20T09:12:46.061Z,12.20
2023-01-20T09:17:49.733Z,12.14
2023-01-20T09:22:53.335Z,11.85
2023-01-20T09:28:00.368Z,11.88
2023-01-20T09:33:04.042Z,11.52
2023-01-20T09:38:26.315Z,12.94
2023-01-20T09:43:57.295Z,11.74
2023-01-20T09:49:50.934Z,11.12
2023-01-20T09:55:04.005Z,9.87
2023-01-20T10:00:17.651Z,10.01
2023-01-20T10:05:26.257Z,9.60
2023-01-20T10:10:41.346Z,11.18
2023-01-20T10:15:50.520Z,11.25
2023-01-20T10:21:22.492Z,10.38
2023-01-20T10:26:53.915Z,9.11
2023-01-20T10:32:01.843Z,7.68
2023-01-20T10:37:11.598Z,6.90
2023-01-20T10:42:18.051Z,5.58
2023-01-20T10:47:39.441Z,5.43
2023-01-20T10:52:43.204Z,5.09
2023-01-20T10:57:56.153Z,5.08
2023-01-20T11:03:02.370Z,4.86
2023-01-20T11:08:17.032Z,4.69
2023-01-20T11:13:20.294Z,5.03
2023-01-20T11:18:28.263Z,5.72
2023-01-20T11:23:56.081Z,5.47
2023-01-20T11:29:00.637Z,5.71
2023-01-20T11:34:31.600Z,6.40
2023-01-20T11:39:51.822Z,6.32
2023-01-20T11:45:20.398Z,6.84
2023-01-20T11:50:47.706Z,6.80
2023-01-20T11:55:53.954Z,6.40
2023-01-20T12:01:30.456Z,6.89
2023-01-20T12:07:00.952Z,6.75
2023-01-20T12:12:07.564Z,7.74
2023-01-20T12:17:26.116Z,7.19
2023-01-20T12:22:53.957Z,6.94
2023-01-20T12:28:05.625Z,7.22
2023-01-20T12:33:21.012Z,7.36
2023-01-20T12:38:25.359Z,7.72
2023-01-20T12:43:51.285Z,7.34
2023-01-20T12:49:22.007Z,7.13
2023-01-20T12:54:50.805Z,7.04
2023-01-20T13:00:00.059Z,6.98
2023-01-20T13:05:13.301Z,6.94
2023-01-20T13:10:32.408Z,6.88
2023-01-20T13:15:59.670Z,7.01
2023-01-20T13:21:12.965Z,7.02
2023-01-20T13:26:17.625Z,6.85
2023-01-20T13:31:44.702Z,6.88
2023-01-20T13:37:03.885Z,7.06
2023-01-20T13:42:38.061Z,6.90
2023-01-20T13:48:06.598Z,6.73
2023-01-20T13:53:21.613Z,6.65
2023-01-20T13:58:33.843Z,6.72
2023-01-20T14:03:40.271Z,6.92
2023-01-20T14:08:47.788Z,6.98
2023-01-20T14:13:55.307Z,6.83
2023-01-20T14:19:01.557Z,6.77
2023-01-20T14:24:05.203Z,5.98
2023-01-20T14:29:20.410Z,5.03
2023-01-20T14:34:32.451Z,4.87
2023-01-20T14:39:35.856Z,4.63
2023-01-20T14:44:39.440Z,4.55
2023-01-20T14:49:44.002Z,4.36
2023-01-20T14:54:49.931Z,4.22
2023-01-20T15:00:18.913Z,4.03
2023-01-20T15:05:34.933Z,4.13
2023-01-20T15:10:40.833Z,4.03
2023-01-20T15:15:45.140Z,4.07
2023-01-20T15:21:15.689Z,4.09
2023-01-20T15:26:28.932Z,4.16
2023-01-20T15:31:32.626Z,4.28
2023-01-20T15:36:42.612Z,4.24
2023-01-20T15:41:47.853Z,4.30
2023-01-20T15:46:52.383Z,4.37
2023-01-20T15:51:57.135Z,4.47
2023-01-20T15:57:00.495Z,4.59
2023-01-20T16:02:04.360Z,4.59
2023-01-20T16:07:19.302Z,4.64
2023-01-20T16:12:22.371Z,4.72
2023-01-20T16:17:30.891Z,4.82
2023-01-20T16:22:34.536Z,4.76
2023-01-20T16:27:37.897Z,4.82
2023-01-20T16:32:41.515Z,4.68
2023-01-20T16:37:46.887Z,4.68
2023-01-20T16:42:51.194Z,4.82
2023-01-20T16:47:54.693Z,4.76
2023-01-20T16:52:58.356Z,4.66
2023-01-20T16:58:01.603Z,4.77
2023-01-20T17:03:05.389Z,4.88
2023-01-20T17:08:10.664Z,4.68
2023-01-20T17:13:15.220Z,4.55
2023-01-20T17:18:18.247Z,4.33
2023-01-20T17:23:22.150Z,4.43
2023-01-20T17:28:26.440Z,4.36
2023-01-20T17:33:30.450Z,4.33
2023-01-20T17:38:36.248Z,4.26
2023-01-20T17:43:42.168Z,4.35
2023-01-20T17:48:46.552Z,4.41
2023-01-20T17:53:51.149Z,4.61
2023-01-20T17:58:54.987Z,4.53
2023-01-20T18:04:00.441Z,4.58
2023-01-20T18:09:06.111Z,4.47
2023-01-20T18:14:12.004Z,4.45
2023-01-20T18:19:17.042Z,4.33
2023-01-20T18:24:20.962Z,4.18
2023-01-20T18:29:24.724Z,3.88
2023-01-20T18:34:30.443Z,3.75
2023-01-20T18:39:36.952Z,3.75
2023-01-20T18:44:41.414Z,3.62
2023-01-20T18:49:44.566Z,3.70
2023-01-20T18:54:48.079Z,3.57
2023-01-20T18:59:51.106Z,3.61
2023-01-20T19:04:54.573Z,3.68
2023-01-20T19:09:57.724Z,3.54
2023-01-20T19:15:01.840Z,3.54
2023-01-20T19:20:05.917Z,3.47
2023-01-20T19:25:09.469Z,3.31
2023-01-20T19:30:13.431Z,3.50
2023-01-20T19:35:17.116Z,3.50
2023-01-20T19:40:20.218Z,3.63
2023-01-20T19:45:26.953Z,3.54
2023-01-20T19:50:33.075Z,3.54
2023-01-20T19:55:36.523Z,3.45
2023-01-20T20:00:40.626Z,3.59
2023-01-20T20:05:44.285Z,3.70
2023-01-20T20:10:48.490Z,3.90
2023-01-20T20:16:03.437Z,3.98
2023-01-20T20:21:08.564Z,3.76
2023-01-20T20:26:13.373Z,3.94
2023-01-20T20:31:17.058Z,3.96
2023-01-20T20:36:20.899Z,3.87
2023-01-20T20:41:26.779Z,3.71
2023-01-20T20:46:30.664Z,3.47
2023-01-20T20:51:35.619Z,3.29
2023-01-20T20:56:39.000Z,3.22
2023-01-20T21:01:42.146Z,3.28
2023-01-20T21:06:45.632Z,3.27
2023-01-20T21:11:49.168Z,3.08
2023-01-20T21:16:52.325Z,3.14
2023-01-20T21:21:56.039Z,3.04
2023-01-20T21:27:00.940Z,2.99
2023-01-20T21:32:04.175Z,2.85
2023-01-20T21:37:08.925Z,2.90
2023-01-20T21:42:11.972Z,2.70
2023-01-20T21:47:15.847Z,2.71
2023-01-20T21:52:42.999Z,2.71
2023-01-20T21:57:48.415Z,2.50
2023-01-20T22:02:53.665Z,2.56
2023-01-20T22:07:57.086Z,2.42
2023-01-20T22:13:00.433Z,2.37
2023-01-20T22:18:04.598Z,2.42
2023-01-20T22:23:07.806Z,2.49
2023-01-20T22:28:11.721Z,2.64
2023-01-20T22:33:15.561Z,2.61
2023-01-20T22:38:19.507Z,2.66
2023-01-20T22:43:22.786Z,2.51
2023-01-20T22:48:26.076Z,2.58
2023-01-20T22:53:29.734Z,2.54
2023-01-20T22:58:33.418Z,2.22
2023-01-20T23:03:37.006Z,2.22
2023-01-20T23:08:41.294Z,2.22
2023-01-20T23:13:45.870Z,2.29
2023-01-20T23:18:50.773Z,2.21
2023-01-20T23:23:57.067Z,2.38
2023-01-20T23:29:00.419Z,2.34
2023-01-20T23:34:04.408Z,2.37
2023-01-20T23:39:07.595Z,2.27
2023-01-20T23:44:11.408Z,2.11
2023-01-20T23:49:14.942Z,2.28
2023-01-20T23:54:18.151Z,2.30
2023-01-20T23:59:21.802Z,2.06
